sensor_id;sensor_type;location;lat;lon;timestamp;P1;durP1;ratioP1;P2;durP2;ratioP2
48627;SDS011;34424;52.234;6.500;2022-09-30T00:04:50;33.40;;;26.95;;
48627;SDS011;34424;52.234;6.500;2022-09-30T00:09:54;34.53;;;24.48;;
48627;SDS011;34424;52.234;6.500;2022-09-30T00:14:57;33.25;;;28.38;;
48627;SDS011;34424;52.234;6.500;2022-09-30T00:20:00;31.58;;;22.45;;
48627;SDS011;34424;52.234;6.500;2022-09-30T00:25:04;31.85;;;22.52;;
48627;SDS011;34424;52.234;6.500;2022-09-30T00:30:07;35.92;;;25.23;;
48627;SDS011;34424;52.234;6.500;2022-09-30T00:35:09;37.70;;;25.70;;
48627;SDS011;34424;52.234;6.500;2022-09-30T00:40:13;39.65;;;28.92;;
48627;SDS011;34424;52.234;6.500;2022-09-30T00:45:16;34.55;;;23.55;;
48627;SDS011;34424;52.234;6.500;2022-09-30T00:50:24;34.37;;;22.10;;
48627;SDS011;34424;52.234;6.500;2022-09-30T00:55:32;42.38;;;29.10;;
48627;SDS011;34424;52.234;6.500;2022-09-30T01:00:37;47.55;;;31.15;;
48627;SDS011;34424;52.234;6.500;2022-09-30T01:05:39;43.92;;;28.38;;
48627;SDS011;34424;52.234;6.500;2022-09-30T01:10:43;39.72;;;24.92;;
48627;SDS011;34424;52.234;6.500;2022-09-30T01:15:50;43.72;;;28.95;;
48627;SDS011;34424;52.234;6.500;2022-09-30T01:21:09;36.78;;;24.52;;
48627;SDS011;34424;52.234;6.500;2022-09-30T01:26:20;41.65;;;27.65;;
48627;SDS011;34424;52.234;6.500;2022-09-30T01:31:32;36.55;;;26.42;;
48627;SDS011;34424;52.234;6.500;2022-09-30T01:36:44;37.50;;;23.63;;
48627;SDS011;34424;52.234;6.500;2022-09-30T01:41:51;46.63;;;29.15;;
48627;SDS011;34424;52.234;6.500;2022-09-30T01:46:57;34.92;;;23.50;;
48627;SDS011;34424;52.234;6.500;2022-09-30T01:52:03;38.22;;;26.05;;
48627;SDS011;34424;52.234;6.500;2022-09-30T01:57:08;38.67;;;26.13;;
48627;SDS011;34424;52.234;6.500;2022-09-30T02:02:15;35.20;;;26.35;;
48627;SDS011;34424;52.234;6.500;2022-09-30T02:07:20;53.55;;;30.13;;
48627;SDS011;34424;52.234;6.500;2022-09-30T02:12:25;43.00;;;28.05;;
48627;SDS011;34424;52.234;6.500;2022-09-30T02:17:31;45.70;;;26.70;;
48627;SDS011;34424;52.234;6.500;2022-09-30T02:22:36;44.65;;;28.42;;
48627;SDS011;34424;52.234;6.500;2022-09-30T02:27:43;36.50;;;25.08;;
48627;SDS011;34424;52.234;6.500;2022-09-30T02:32:49;34.67;;;24.67;;
48627;SDS011;34424;52.234;6.500;2022-09-30T02:37:54;34.28;;;24.23;;
48627;SDS011;34424;52.234;6.500;2022-09-30T02:42:59;31.25;;;20.65;;
48627;SDS011;34424;52.234;6.500;2022-09-30T02:48:07;37.10;;;23.50;;
48627;SDS011;34424;52.234;6.500;2022-09-30T02:53:14;31.20;;;22.25;;
48627;SDS011;34424;52.234;6.500;2022-09-30T02:58:19;38.25;;;25.85;;
48627;SDS011;34424;52.234;6.500;2022-09-30T03:03:24;42.85;;;26.23;;
48627;SDS011;34424;52.234;6.500;2022-09-30T03:08:28;39.25;;;26.20;;
48627;SDS011;34424;52.234;6.500;2022-09-30T03:13:37;31.85;;;21.50;;
48627;SDS011;34424;52.234;6.500;2022-09-30T03:23:52;32.78;;;21.85;;
48627;SDS011;34424;52.234;6.500;2022-09-30T03:29:00;34.45;;;21.52;;
48627;SDS011;34424;52.234;6.500;2022-09-30T03:34:06;30.40;;;20.27;;
48627;SDS011;34424;52.234;6.500;2022-09-30T03:39:15;36.13;;;21.88;;
48627;SDS011;34424;52.234;6.500;2022-09-30T03:44:24;40.15;;;24.05;;
48627;SDS011;34424;52.234;6.500;2022-09-30T03:49:29;33.58;;;22.65;;
48627;SDS011;34424;52.234;6.500;2022-09-30T03:54:34;40.88;;;25.35;;
48627;SDS011;34424;52.234;6.500;2022-09-30T03:59:45;46.30;;;28.15;;
48627;SDS011;34424;52.234;6.500;2022-09-30T04:04:47;43.72;;;28.90;;
48627;SDS011;34424;52.234;6.500;2022-09-30T04:09:51;46.95;;;29.85;;
48627;SDS011;34424;52.234;6.500;2022-09-30T04:19:55;43.15;;;27.70;;
48627;SDS011;34424;52.234;6.500;2022-09-30T04:24:59;43.88;;;24.73;;
48627;SDS011;34424;52.234;6.500;2022-09-30T04:35:04;38.78;;;24.40;;
48627;SDS011;34424;52.234;6.500;2022-09-30T04:40:08;42.83;;;26.57;;
48627;SDS011;34424;52.234;6.500;2022-09-30T04:45:11;59.47;;;31.73;;
48627;SDS011;34424;52.234;6.500;2022-09-30T04:50:14;51.78;;;31.30;;
48627;SDS011;34424;52.234;6.500;2022-09-30T04:55:17;55.47;;;32.30;;
48627;SDS011;34424;52.234;6.500;2022-09-30T05:05:22;56.03;;;31.80;;
48627;SDS011;34424;52.234;6.500;2022-09-30T05:10:26;59.40;;;34.28;;
48627;SDS011;34424;52.234;6.500;2022-09-30T05:20:30;57.60;;;35.08;;
48627;SDS011;34424;52.234;6.500;2022-09-30T05:25:35;65.88;;;34.60;;
48627;SDS011;34424;52.234;6.500;2022-09-30T05:35:40;65.20;;;37.38;;
48627;SDS011;34424;52.234;6.500;2022-09-30T05:40:43;69.10;;;37.83;;
48627;SDS011;34424;52.234;6.500;2022-09-30T05:45:50;67.00;;;39.55;;
48627;SDS011;34424;52.234;6.500;2022-09-30T05:50:53;73.93;;;39.90;;
48627;SDS011;34424;52.234;6.500;2022-09-30T05:55:57;72.33;;;40.23;;
48627;SDS011;34424;52.234;6.500;2022-09-30T06:01:02;88.55;;;43.50;;
48627;SDS011;34424;52.234;6.500;2022-09-30T06:06:13;72.10;;;38.85;;
48627;SDS011;34424;52.234;6.500;2022-09-30T06:11:17;87.68;;;42.50;;
48627;SDS011;34424;52.234;6.500;2022-09-30T06:16:20;77.70;;;40.50;;
48627;SDS011;34424;52.234;6.500;2022-09-30T06:21:24;88.22;;;40.78;;
48627;SDS011;34424;52.234;6.500;2022-09-30T06:26:27;65.32;;;43.95;;
48627;SDS011;34424;52.234;6.500;2022-09-30T06:36:32;56.85;;;38.28;;
48627;SDS011;34424;52.234;6.500;2022-09-30T06:41:36;56.78;;;43.67;;
48627;SDS011;34424;52.234;6.500;2022-09-30T06:46:39;44.58;;;38.60;;
48627;SDS011;34424;52.234;6.500;2022-09-30T06:51:54;47.10;;;39.58;;
48627;SDS011;34424;52.234;6.500;2022-09-30T06:56:58;49.95;;;42.03;;
48627;SDS011;34424;52.234;6.500;2022-09-30T07:02:00;51.97;;;44.78;;
48627;SDS011;34424;52.234;6.500;2022-09-30T07:07:02;43.28;;;37.22;;
48627;SDS011;34424;52.234;6.500;2022-09-30T07:12:06;29.58;;;26.48;;
48627;SDS011;34424;52.234;6.500;2022-09-30T07:17:08;22.35;;;20.15;;
48627;SDS011;34424;52.234;6.500;2022-09-30T07:22:11;20.33;;;18.33;;
48627;SDS011;34424;52.234;6.500;2022-09-30T07:27:31;18.83;;;16.83;;
48627;SDS011;34424;52.234;6.500;2022-09-30T07:32:34;17.85;;;15.93;;
48627;SDS011;34424;52.234;6.500;2022-09-30T07:37:36;18.17;;;16.27;;
48627;SDS011;34424;52.234;6.500;2022-09-30T07:42:40;17.43;;;15.40;;
48627;SDS011;34424;52.234;6.500;2022-09-30T07:47:46;19.98;;;16.30;;
48627;SDS011;34424;52.234;6.500;2022-09-30T07:52:53;16.05;;;14.45;;
48627;SDS011;34424;52.234;6.500;2022-09-30T07:57:58;17.77;;;15.43;;
48627;SDS011;34424;52.234;6.500;2022-09-30T08:03:01;17.75;;;15.90;;
48627;SDS011;34424;52.234;6.500;2022-09-30T08:08:03;18.27;;;14.37;;
48627;SDS011;34424;52.234;6.500;2022-09-30T08:13:08;15.30;;;13.80;;
48627;SDS011;34424;52.234;6.500;2022-09-30T08:18:14;17.75;;;14.20;;
48627;SDS011;34424;52.234;6.500;2022-09-30T08:23:17;20.08;;;15.05;;
48627;SDS011;34424;52.234;6.500;2022-09-30T08:28:20;15.77;;;14.10;;
48627;SDS011;34424;52.234;6.500;2022-09-30T08:33:25;19.67;;;15.02;;
48627;SDS011;34424;52.234;6.500;2022-09-30T08:43:34;17.58;;;14.07;;
48627;SDS011;34424;52.234;6.500;2022-09-30T08:48:43;16.05;;;13.60;;
48627;SDS011;34424;52.234;6.500;2022-09-30T08:53:47;16.10;;;13.80;;
48627;SDS011;34424;52.234;6.500;2022-09-30T08:58:52;14.82;;;13.32;;
48627;SDS011;34424;52.234;6.500;2022-09-30T09:03:57;18.48;;;15.18;;
48627;SDS011;34424;52.234;6.500;2022-09-30T09:09:11;19.38;;;15.77;;
48627;SDS011;34424;52.234;6.500;2022-09-30T09:14:19;22.70;;;16.90;;
48627;SDS011;34424;52.234;6.500;2022-09-30T09:19:24;19.40;;;14.88;;
48627;SDS011;34424;52.234;6.500;2022-09-30T09:24:27;20.73;;;15.80;;
48627;SDS011;34424;52.234;6.500;2022-09-30T09:29:34;21.42;;;16.27;;
48627;SDS011;34424;52.234;6.500;2022-09-30T09:34:38;19.83;;;16.25;;
48627;SDS011;34424;52.234;6.500;2022-09-30T09:39:50;18.55;;;16.40;;
48627;SDS011;34424;52.234;6.500;2022-09-30T09:44:57;21.92;;;16.13;;
48627;SDS011;34424;52.234;6.500;2022-09-30T09:50:02;18.70;;;16.52;;
48627;SDS011;34424;52.234;6.500;2022-09-30T09:55:05;18.23;;;16.27;;
48627;SDS011;34424;52.234;6.500;2022-09-30T10:00:11;17.52;;;15.65;;
48627;SDS011;34424;52.234;6.500;2022-09-30T10:05:40;17.88;;;15.98;;
48627;SDS011;34424;52.234;6.500;2022-09-30T10:10:45;16.55;;;14.85;;
48627;SDS011;34424;52.234;6.500;2022-09-30T10:15:49;16.63;;;14.45;;
48627;SDS011;34424;52.234;6.500;2022-09-30T10:20:54;16.55;;;14.68;;
48627;SDS011;34424;52.234;6.500;2022-09-30T10:25:58;17.00;;;15.13;;
48627;SDS011;34424;52.234;6.500;2022-09-30T10:31:03;15.93;;;14.32;;
48627;SDS011;34424;52.234;6.500;2022-09-30T10:36:07;15.15;;;13.57;;
48627;SDS011;34424;52.234;6.500;2022-09-30T10:41:10;16.75;;;14.98;;
48627;SDS011;34424;52.234;6.500;2022-09-30T10:46:16;17.05;;;15.30;;
48627;SDS011;34424;52.234;6.500;2022-09-30T10:51:28;16.27;;;14.57;;
48627;SDS011;34424;52.234;6.500;2022-09-30T10:56:35;17.50;;;14.30;;
48627;SDS011;34424;52.234;6.500;2022-09-30T11:01:42;15.73;;;14.10;;
48627;SDS011;34424;52.234;6.500;2022-09-30T11:06:46;16.42;;;14.73;;
48627;SDS011;34424;52.234;6.500;2022-09-30T11:11:52;15.57;;;13.95;;
48627;SDS011;34424;52.234;6.500;2022-09-30T11:17:04;15.90;;;14.18;;
48627;SDS011;34424;52.234;6.500;2022-09-30T11:22:19;15.10;;;13.57;;
48627;SDS011;34424;52.234;6.500;2022-09-30T11:27:25;15.93;;;14.27;;
48627;SDS011;34424;52.234;6.500;2022-09-30T11:32:34;15.68;;;14.00;;
48627;SDS011;34424;52.234;6.500;2022-09-30T11:37:45;17.10;;;14.68;;
48627;SDS011;34424;52.234;6.500;2022-09-30T11:42:51;16.48;;;14.65;;
48627;SDS011;34424;52.234;6.500;2022-09-30T11:48:03;15.68;;;14.13;;
48627;SDS011;34424;52.234;6.500;2022-09-30T11:53:13;15.80;;;14.00;;
48627;SDS011;34424;52.234;6.500;2022-09-30T11:58:20;17.17;;;15.27;;
48627;SDS011;34424;52.234;6.500;2022-09-30T12:03:44;16.52;;;14.82;;
48627;SDS011;34424;52.234;6.500;2022-09-30T12:08:48;16.15;;;14.55;;
48627;SDS011;34424;52.234;6.500;2022-09-30T12:13:52;18.08;;;15.70;;
48627;SDS011;34424;52.234;6.500;2022-09-30T12:18:59;16.90;;;15.10;;
48627;SDS011;34424;52.234;6.500;2022-09-30T12:24:05;17.25;;;15.45;;
48627;SDS011;34424;52.234;6.500;2022-09-30T12:29:12;17.77;;;15.82;;
48627;SDS011;34424;52.234;6.500;2022-09-30T12:34:39;15.13;;;13.17;;
48627;SDS011;34424;52.234;6.500;2022-09-30T12:39:48;15.57;;;13.82;;
48627;SDS011;34424;52.234;6.500;2022-09-30T12:45:08;16.45;;;14.63;;
48627;SDS011;34424;52.234;6.500;2022-09-30T12:50:22;17.08;;;15.38;;
48627;SDS011;34424;52.234;6.500;2022-09-30T12:55:29;17.40;;;15.63;;
48627;SDS011;34424;52.234;6.500;2022-09-30T13:00:32;17.83;;;14.27;;
48627;SDS011;34424;52.234;6.500;2022-09-30T13:10:59;22.33;;;16.85;;
48627;SDS011;34424;52.234;6.500;2022-09-30T13:16:07;17.25;;;15.50;;
48627;SDS011;34424;52.234;6.500;2022-09-30T13:21:21;17.80;;;16.08;;
48627;SDS011;34424;52.234;6.500;2022-09-30T13:26:36;16.15;;;14.45;;
48627;SDS011;34424;52.234;6.500;2022-09-30T13:36:57;15.30;;;13.90;;
48627;SDS011;34424;52.234;6.500;2022-09-30T13:42:02;14.25;;;12.80;;
48627;SDS011;34424;52.234;6.500;2022-09-30T13:47:09;14.60;;;13.10;;
48627;SDS011;34424;52.234;6.500;2022-09-30T13:52:17;14.13;;;12.82;;
48627;SDS011;34424;52.234;6.500;2022-09-30T13:57:24;13.77;;;12.55;;
48627;SDS011;34424;52.234;6.500;2022-09-30T14:02:38;11.40;;;10.23;;
48627;SDS011;34424;52.234;6.500;2022-09-30T14:07:45;11.38;;;10.27;;
48627;SDS011;34424;52.234;6.500;2022-09-30T14:13:00;11.10;;;9.63;;
48627;SDS011;34424;52.234;6.500;2022-09-30T14:18:12;12.30;;;11.13;;
48627;SDS011;34424;52.234;6.500;2022-09-30T14:23:23;7.82;;;6.97;;
48627;SDS011;34424;52.234;6.500;2022-09-30T14:28:29;7.97;;;7.20;;
48627;SDS011;34424;52.234;6.500;2022-09-30T14:33:33;8.43;;;7.10;;
48627;SDS011;34424;52.234;6.500;2022-09-30T14:38:36;6.57;;;5.88;;
48627;SDS011;34424;52.234;6.500;2022-09-30T14:43:40;6.28;;;5.57;;
48627;SDS011;34424;52.234;6.500;2022-09-30T14:48:44;7.10;;;6.38;;
48627;SDS011;34424;52.234;6.500;2022-09-30T14:53:52;6.25;;;5.65;;
48627;SDS011;34424;52.234;6.500;2022-09-30T14:58:56;6.75;;;6.15;;
48627;SDS011;34424;52.234;6.500;2022-09-30T15:04:00;6.18;;;5.45;;
48627;SDS011;34424;52.234;6.500;2022-09-30T15:09:04;4.22;;;3.83;;
48627;SDS011;34424;52.234;6.500;2022-09-30T15:14:11;3.70;;;3.40;;
48627;SDS011;34424;52.234;6.500;2022-09-30T15:19:19;3.42;;;3.13;;
48627;SDS011;34424;52.234;6.500;2022-09-30T15:24:23;4.13;;;3.63;;
48627;SDS011;34424;52.234;6.500;2022-09-30T15:29:27;4.55;;;3.88;;
48627;SDS011;34424;52.234;6.500;2022-09-30T15:34:30;5.07;;;4.65;;
48627;SDS011;34424;52.234;6.500;2022-09-30T15:39:35;5.47;;;4.63;;
48627;SDS011;34424;52.234;6.500;2022-09-30T15:44:57;7.00;;;4.45;;
48627;SDS011;34424;52.234;6.500;2022-09-30T15:50:00;5.57;;;4.18;;
48627;SDS011;34424;52.234;6.500;2022-09-30T16:00:35;3.83;;;3.33;;
48627;SDS011;34424;52.234;6.500;2022-09-30T16:05:38;4.25;;;3.58;;
48627;SDS011;34424;52.234;6.500;2022-09-30T16:10:42;5.03;;;3.40;;
48627;SDS011;34424;52.234;6.500;2022-09-30T16:15:51;4.82;;;3.60;;
48627;SDS011;34424;52.234;6.500;2022-09-30T16:20:54;5.57;;;3.20;;
48627;SDS011;34424;52.234;6.500;2022-09-30T16:26:16;4.85;;;4.10;;
48627;SDS011;34424;52.234;6.500;2022-09-30T16:31:20;8.70;;;4.28;;
48627;SDS011;34424;52.234;6.500;2022-09-30T16:36:23;6.47;;;3.63;;
48627;SDS011;34424;52.234;6.500;2022-09-30T16:41:25;6.93;;;4.40;;
48627;SDS011;34424;52.234;6.500;2022-09-30T16:46:30;9.02;;;4.55;;
48627;SDS011;34424;52.234;6.500;2022-09-30T16:51:33;6.32;;;5.13;;
48627;SDS011;34424;52.234;6.500;2022-09-30T16:56:35;6.93;;;4.60;;
48627;SDS011;34424;52.234;6.500;2022-09-30T17:01:39;7.03;;;5.30;;
48627;SDS011;34424;52.234;6.500;2022-09-30T17:06:42;7.60;;;5.38;;
48627;SDS011;34424;52.234;6.500;2022-09-30T17:11:45;7.35;;;6.32;;
48627;SDS011;34424;52.234;6.500;2022-09-30T17:16:48;8.13;;;5.87;;
48627;SDS011;34424;52.234;6.500;2022-09-30T17:21:52;9.63;;;7.15;;
48627;SDS011;34424;52.234;6.500;2022-09-30T17:26:54;8.30;;;6.78;;
48627;SDS011;34424;52.234;6.500;2022-09-30T17:31:58;9.85;;;6.88;;
48627;SDS011;34424;52.234;6.500;2022-09-30T17:37:00;7.68;;;5.75;;
48627;SDS011;34424;52.234;6.500;2022-09-30T17:42:03;6.20;;;5.40;;
48627;SDS011;34424;52.234;6.500;2022-09-30T17:47:24;9.55;;;5.47;;
48627;SDS011;34424;52.234;6.500;2022-09-30T17:52:27;7.20;;;5.18;;
48627;SDS011;34424;52.234;6.500;2022-09-30T17:57:34;8.85;;;5.05;;
48627;SDS011;34424;52.234;6.500;2022-09-30T18:02:41;7.35;;;5.75;;
48627;SDS011;34424;52.234;6.500;2022-09-30T18:07:45;8.20;;;5.38;;
48627;SDS011;34424;52.234;6.500;2022-09-30T18:12:47;6.50;;;5.63;;
48627;SDS011;34424;52.234;6.500;2022-09-30T18:17:53;9.18;;;6.22;;
48627;SDS011;34424;52.234;6.500;2022-09-30T18:22:55;7.38;;;6.63;;
48627;SDS011;34424;52.234;6.500;2022-09-30T18:27:58;7.65;;;5.68;;
48627;SDS011;34424;52.234;6.500;2022-09-30T18:33:02;7.40;;;6.10;;
48627;SDS011;34424;52.234;6.500;2022-09-30T18:38:07;7.25;;;6.53;;
48627;SDS011;34424;52.234;6.500;2022-09-30T18:43:10;6.83;;;6.17;;
48627;SDS011;34424;52.234;6.500;2022-09-30T18:53:17;6.28;;;5.32;;
48627;SDS011;34424;52.234;6.500;2022-09-30T18:58:20;5.97;;;5.13;;
48627;SDS011;34424;52.234;6.500;2022-09-30T19:03:22;6.00;;;5.38;;
48627;SDS011;34424;52.234;6.500;2022-09-30T19:08:30;5.57;;;5.07;;
48627;SDS011;34424;52.234;6.500;2022-09-30T19:13:34;6.00;;;5.15;;
48627;SDS011;34424;52.234;6.500;2022-09-30T19:18:37;7.95;;;4.78;;
48627;SDS011;34424;52.234;6.500;2022-09-30T19:23:41;5.10;;;4.60;;
48627;SDS011;34424;52.234;6.500;2022-09-30T19:28:44;4.32;;;3.83;;
48627;SDS011;34424;52.234;6.500;2022-09-30T19:33:47;4.67;;;3.83;;
48627;SDS011;34424;52.234;6.500;2022-09-30T19:38:58;4.78;;;4.32;;
48627;SDS011;34424;52.234;6.500;2022-09-30T19:44:12;4.60;;;3.85;;
48627;SDS011;34424;52.234;6.500;2022-09-30T19:49:18;4.10;;;3.80;;
48627;SDS011;34424;52.234;6.500;2022-09-30T19:54:23;3.90;;;3.55;;
48627;SDS011;34424;52.234;6.500;2022-09-30T19:59:41;6.00;;;3.85;;
48627;SDS011;34424;52.234;6.500;2022-09-30T20:04:43;5.10;;;3.95;;
48627;SDS011;34424;52.234;6.500;2022-09-30T20:09:47;4.47;;;4.07;;
48627;SDS011;34424;52.234;6.500;2022-09-30T20:14:49;4.60;;;3.83;;
48627;SDS011;34424;52.234;6.500;2022-09-30T20:20:09;4.30;;;3.90;;
48627;SDS011;34424;52.234;6.500;2022-09-30T20:25:30;4.68;;;4.28;;
48627;SDS011;34424;52.234;6.500;2022-09-30T20:30:33;4.28;;;3.88;;
48627;SDS011;34424;52.234;6.500;2022-09-30T20:35:38;4.70;;;3.90;;
48627;SDS011;34424;52.234;6.500;2022-09-30T20:40:41;4.25;;;3.95;;
48627;SDS011;34424;52.234;6.500;2022-09-30T20:45:50;4.57;;;4.10;;
48627;SDS011;34424;52.234;6.500;2022-09-30T20:50:53;4.53;;;4.03;;
48627;SDS011;34424;52.234;6.500;2022-09-30T20:55:58;4.18;;;3.78;;
48627;SDS011;34424;52.234;6.500;2022-09-30T21:01:01;4.47;;;3.75;;
48627;SDS011;34424;52.234;6.500;2022-09-30T21:11:08;3.45;;;3.20;;
48627;SDS011;34424;52.234;6.500;2022-09-30T21:16:11;3.42;;;3.13;;
48627;SDS011;34424;52.234;6.500;2022-09-30T21:21:15;6.43;;;3.38;;
48627;SDS011;34424;52.234;6.500;2022-09-30T21:26:19;4.07;;;2.88;;
48627;SDS011;34424;52.234;6.500;2022-09-30T21:31:22;3.80;;;3.13;;
48627;SDS011;34424;52.234;6.500;2022-09-30T21:36:25;3.80;;;3.50;;
48627;SDS011;34424;52.234;6.500;2022-09-30T21:41:29;2.95;;;2.67;;
48627;SDS011;34424;52.234;6.500;2022-09-30T21:46:33;3.65;;;3.05;;
48627;SDS011;34424;52.234;6.500;2022-09-30T21:51:37;6.00;;;2.73;;
48627;SDS011;34424;52.234;6.500;2022-09-30T21:56:41;4.05;;;3.10;;
48627;SDS011;34424;52.234;6.500;2022-09-30T22:01:44;5.38;;;3.20;;
48627;SDS011;34424;52.234;6.500;2022-09-30T22:06:46;3.78;;;3.47;;
48627;SDS011;34424;52.234;6.500;2022-09-30T22:11:50;4.22;;;3.83;;
48627;SDS011;34424;52.234;6.500;2022-09-30T22:16:53;4.35;;;3.95;;
48627;SDS011;34424;52.234;6.500;2022-09-30T22:21:56;4.80;;;4.22;;
48627;SDS011;34424;52.234;6.500;2022-09-30T22:26:59;5.80;;;4.20;;
48627;SDS011;34424;52.234;6.500;2022-09-30T22:32:02;5.50;;;4.38;;
48627;SDS011;34424;52.234;6.500;2022-09-30T22:37:04;4.43;;;3.90;;
48627;SDS011;34424;52.234;6.500;2022-09-30T22:42:25;4.55;;;4.15;;
48627;SDS011;34424;52.234;6.500;2022-09-30T22:47:29;5.22;;;4.45;;
48627;SDS011;34424;52.234;6.500;2022-09-30T22:52:31;5.17;;;4.20;;
48627;SDS011;34424;52.234;6.500;2022-09-30T22:57:35;7.15;;;4.65;;
48627;SDS011;34424;52.234;6.500;2022-09-30T23:02:37;4.88;;;4.25;;
48627;SDS011;34424;52.234;6.500;2022-09-30T23:07:40;5.23;;;4.73;;
48627;SDS011;34424;52.234;6.500;2022-09-30T23:12:44;5.55;;;4.32;;
48627;SDS011;34424;52.234;6.500;2022-09-30T23:17:47;10.45;;;5.50;;
48627;SDS011;34424;52.234;6.500;2022-09-30T23:22:50;6.28;;;5.68;;
48627;SDS011;34424;52.234;6.500;2022-09-30T23:27:53;6.05;;;5.10;;
48627;SDS011;34424;52.234;6.500;2022-09-30T23:32:56;6.57;;;5.90;;
48627;SDS011;34424;52.234;6.500;2022-09-30T23:37:59;6.45;;;5.85;;
48627;SDS011;34424;52.234;6.500;2022-09-30T23:43:02;7.90;;;7.00;;
48627;SDS011;34424;52.234;6.500;2022-09-30T23:48:05;10.27;;;7.25;;
48627;SDS011;34424;52.234;6.500;2022-09-30T23:53:07;8.25;;;7.45;;
48627;SDS011;34424;52.234;6.500;2022-09-30T23:58:11;8.70;;;7.90;;
